Terminal Aerodrome Forecast
Issued by NWS Louisville, KY

Home | Current Version | Previous Version | Text Only | Print | Product List | Glossary On
Versions: 1 2 3 4 5 6 7 8 9 10 11 12 13 14 15 16
000
FTUS43 KLMK 210520
TAFBWG
TAF
KBWG 210520Z 2106/2206 00000KT P6SM FEW200
     FM211000 00000KT 6SM BR FEW200
     FM211300 19005KT P6SM FEW050 FEW200=

USA.gov is the U.S. government's official web portal to all federal, state and local government web resources and services.